Time;durP1;ratioP1;P1;durP2;ratioP2;P2;SDS_P1;SDS_P2;PMS_P1;PMS_P2;Temp;Humidity;BMP_temperature;BMP_pressure;BME280_temperature;BME280_humidity;BME280_pressure;Samples;Min_cycle;Max_cycle;Signal;HPM_P1;HPM_P2
2022/04/02 00:01:33;;;;;;;;;;;;;;;;;;5093103;28;19919;-53
2022/04/02 00:03:59;;;;;;;;;;;;;;;;;;5088437;28;20448;-58
2022/04/02 00:06:26;;;;;;;;;;;;;;;;;;5093024;28;19924;-55
2022/04/02 00:08:52;;;;;;;;;;;;;;;;;;5092614;28;20008;-57
2022/04/02 00:11:19;;;;;;;;;;;;;;;;;;5092990;28;19918;-57
2022/04/02 00:13:45;;;;;;;;;;;;;;;;;;5091936;28;19912;-55
2022/04/02 00:16:12;;;;;;;;;;;;;;;;;;5090960;28;20311;-54
2022/04/02 00:18:39;;;;;;;;;;;;;;;;;;5092161;28;19908;-51
2022/04/02 00:21:05;;;;;;;;;;;;;;;;;;5092463;28;19915;-52
2022/04/02 00:23:43;;;;;;;;;;;;;;;;;;5092673;28;19920;-57
2022/04/02 00:26:10;;;;;;;;;;;;;;;;;;5092370;28;20424;-51
2022/04/02 00:28:36;;;;;;;;;;;;;;;;;;5092421;28;20002;-50
2022/04/02 00:31:03;;;;;;;;;;;;;;;;;;5092358;28;19935;-53
2022/04/02 00:33:29;;;;;;;;;;;;;;;;;;5092186;28;19999;-51
2022/04/02 00:35:56;;;;;;;;;;;;;;;;;;5092290;28;20003;-56
2022/04/02 00:38:22;;;;;;;;;;;;;;;;;;5091895;28;19965;-58
2022/04/02 00:40:49;;;;;;;;;;;;;;;;;;5092054;28;19912;-58
2022/04/02 00:43:15;;;;;;;;;;;;;;;;;;5092465;28;19950;-51
2022/04/02 00:45:41;;;;;;;;;;;;;;;;;;5092674;28;19908;-50
2022/04/02 00:48:08;;;;;;;;;;;;;;;;;;5096399;28;20456;-49
2022/04/02 00:50:34;;;;;;;;;;;;;;;;;;5096534;28;20270;-56
2022/04/02 00:53:01;;;;;;;;;;;;;;;;;;5096268;28;20374;-52
2022/04/02 00:55:30;;;;;;;;;;;;;;;;;;5096016;28;19915;-56
2022/04/02 00:57:56;;;;;;;;;;;;;;;;;;5096266;28;19995;-56
2022/04/02 01:00:23;;;;;;;;;;;;;;;;;;5096449;28;19945;-57
2022/04/02 01:02:49;;;;;;;;;;;;;;;;;;5095671;28;19912;-58
2022/04/02 01:05:16;;;;;;;;;;;;;;;;;;5095727;28;19920;-54
2022/04/02 01:07:42;;;;;;;;;;;;;;;;;;5095702;28;19920;-56
2022/04/02 01:10:09;;;;;;;;;;;;;;;;;;5096110;28;19919;-55
2022/04/02 01:12:35;;;;;;;;;;;;;;;;;;5096149;28;19973;-49
2022/04/02 01:15:02;;;;;;;;;;;;;;;;;;5094254;28;19908;-52
2022/04/02 01:17:28;;;;;;;;;;;;;;;;;;5095301;28;19915;-52
2022/04/02 01:19:54;;;;;;;;;;;;;;;;;;5095836;28;19999;-50
2022/04/02 01:22:22;;;;;;;;;;;;;;;;;;5096199;28;19908;-52
2022/04/02 01:24:48;;;;;;;;;;;;;;;;;;5096080;28;19992;-55
2022/04/02 01:27:15;;;;;;;;;;;;;;;;;;5096153;28;20003;-48
2022/04/02 01:29:41;;;;;;;;;;;;;;;;;;5095051;28;19908;-47
2022/04/02 01:32:08;;;;;;;;;;;;;;;;;;5095846;28;19909;-50
2022/04/02 01:34:35;;;;;;;;;;;;;;;;;;5089301;28;19912;-44
2022/04/02 01:37:01;;;;;;;;;;;;;;;;;;5094650;28;19916;-48
2022/04/02 01:39:28;;;;;;;;;;;;;;;;;;5096646;28;19995;-40
2022/04/02 01:41:54;;;;;;;;;;;;;;;;;;5094786;28;20362;-43
2022/04/02 01:44:21;;;;;;;;;;;;;;;;;;5093875;28;19995;-45
2022/04/02 01:46:47;;;;;;;;;;;;;;;;;;5091545;28;19920;-45
2022/04/02 01:49:14;;;;;;;;;;;;;;;;;;5094294;28;19956;-41
2022/04/02 01:51:40;;;;;;;;;;;;;;;;;;5094638;28;20277;-46
2022/04/02 01:54:07;;;;;;;;;;;;;;;;;;5092756;28;19951;-40
2022/04/02 01:56:34;;;;;;;;;;;;;;;;;;5093790;28;19912;-56
2022/04/02 01:59:00;;;;;;;;;;;;;;;;;;5093573;28;20351;-54
2022/04/02 02:01:27;;;;;;;;;;;;;;;;;;5093104;28;20361;-48
2022/04/02 02:03:53;;;;;;;;;;;;;;;;;;5087885;28;19939;-51
2022/04/02 02:06:20;;;;;;;;;;;;;;;;;;5093970;28;19943;-51
2022/04/02 02:08:46;;;;;;;;;;;;;;;;;;5093390;28;19958;-49
2022/04/02 02:11:13;;;;;;;;;;;;;;;;;;5094745;28;19951;-43
2022/04/02 02:13:39;;;;;;;;;;;;;;;;;;5090203;28;19912;-40
2022/04/02 02:16:06;;;;;;;;;;;;;;;;;;5092610;28;20277;-41
2022/04/02 02:18:32;;;;;;;;;;;;;;;;;;5093106;28;19912;-47
2022/04/02 02:20:58;;;;;;;;;;;;;;;;;;5092856;28;19908;-42
2022/04/02 02:23:25;;;;;;;;;;;;;;;;;;5089894;28;19918;-47
2022/04/02 02:25:51;;;;;;;;;;;;;;;;;;5092323;28;19908;-49
2022/04/02 02:28:18;;;;;;;;;;;;;;;;;;5094058;28;20283;-56
2022/04/02 02:30:44;;;;;;;;;;;;;;;;;;5093089;28;19969;-54
2022/04/02 02:35:55;;;;;;;;;;;;;;;;;;5094509;28;20045;-57
2022/04/02 02:38:22;;;;;;;;;;;;;;;;;;5094698;28;19908;-59
2022/04/02 02:40:48;;;;;;;;;;;;;;;;;;5094681;28;19908;-58
2022/04/02 02:43:15;;;;;;;;;;;;;;;;;;5094144;28;19915;-54
2022/04/02 02:45:42;;;;;;;;;;;;;;;;;;5094085;28;20134;-59
2022/04/02 02:48:09;;;;;;;;;;;;;;;;;;5093485;28;19912;-56
2022/04/02 02:50:36;;;;;;;;;;;;;;;;;;5094176;28;20294;-49
2022/04/02 02:53:02;;;;;;;;;;;;;;;;;;5094636;28;20386;-50
2022/04/02 02:55:29;;;;;;;;;;;;;;;;;;5093611;28;19908;-57
2022/04/02 02:57:55;;;;;;;;;;;;;;;;;;5093941;28;19908;-53
2022/04/02 03:00:22;;;;;;;;;;;;;;;;;;5093709;28;19964;-57
2022/04/02 03:02:48;;;;;;;;;;;;;;;;;;5093714;28;19978;-61
2022/04/02 03:05:15;;;;;;;;;;;;;;;;;;5093682;28;19970;-57
2022/04/02 03:07:51;;;;;;;;;;;;;;;;;;5092508;28;20339;-58
2022/04/02 03:10:17;;;;;;;;;;;;;;;;;;5093111;28;19908;-41
2022/04/02 03:12:44;;;;;;;;;;;;;;;;;;5093571;28;19908;-48
2022/04/02 03:15:11;;;;;;;;;;;;;;;;;;5093935;28;19915;-52
2022/04/02 03:17:37;;;;;;;;;;;;;;;;;;5093574;28;20316;-50
2022/04/02 03:20:04;;;;;;;;;;;;;;;;;;5087239;28;19920;-40
2022/04/02 03:22:35;;;;;;;;;;;;;;;;;;5090099;28;19923;-40
2022/04/02 03:25:01;;;;;;;;;;;;;;;;;;5091969;28;19908;-50
2022/04/02 03:27:28;;;;;;;;;;;;;;;;;;5091515;28;20421;-47
2022/04/02 03:29:55;;;;;;;;;;;;;;;;;;5091099;28;20015;-41
2022/04/02 03:32:21;;;;;;;;;;;;;;;;;;5091299;28;20251;-43
2022/04/02 03:34:48;;;;;;;;;;;;;;;;;;5089138;28;19919;-42
2022/04/02 03:37:14;;;;;;;;;;;;;;;;;;5092054;28;19931;-43
2022/04/02 03:39:41;;;;;;;;;;;;;;;;;;5090536;28;19962;-40
2022/04/02 03:42:08;;;;;;;;;;;;;;;;;;5090808;28;19908;-45
2022/04/02 03:44:35;;;;;;;;;;;;;;;;;;5092563;28;20002;-46
2022/04/02 03:47:11;;;;;;;;;;;;;;;;;;5091987;28;19919;-46
2022/04/02 03:49:37;;;;;;;;;;;;;;;;;;5091713;28;19908;-46
2022/04/02 03:52:04;;;;;;;;;;;;;;;;;;5084884;28;19965;-40
2022/04/02 03:54:30;;;;;;;;;;;;;;;;;;5089018;28;19918;-40
2022/04/02 03:56:57;;;;;;;;;;;;;;;;;;5088920;28;19908;-42
2022/04/02 03:59:24;;;;;;;;;;;;;;;;;;5089884;28;19915;-51
2022/04/02 04:01:50;;;;;;;;;;;;;;;;;;5091599;28;19908;-55
2022/04/02 04:04:17;;;;;;;;;;;;;;;;;;5091502;28;20310;-45
2022/04/02 04:06:43;;;;;;;;;;;;;;;;;;5092254;28;19923;-50
2022/04/02 04:09:10;;;;;;;;;;;;;;;;;;5092518;28;19908;-51
2022/04/02 04:11:36;;;;;;;;;;;;;;;;;;5091767;28;19908;-43
2022/04/02 04:14:03;;;;;;;;;;;;;;;;;;5092609;28;19912;-50
2022/04/02 04:16:29;;;;;;;;;;;;;;;;;;5092704;28;19909;-51
2022/04/02 04:18:56;;;;;;;;;;;;;;;;;;5091288;28;19935;-44
2022/04/02 04:21:24;;;;;;;;;;;;;;;;;;5090968;28;20477;-46
2022/04/02 04:23:51;;;;;;;;;;;;;;;;;;5092530;28;19915;-46
2022/04/02 04:26:17;;;;;;;;;;;;;;;;;;5092537;28;19955;-42
2022/04/02 04:28:44;;;;;;;;;;;;;;;;;;5091535;28;19915;-41
2022/04/02 04:31:11;;;;;;;;;;;;;;;;;;5092634;28;20355;-54
2022/04/02 04:33:40;;;;;;;;;;;;;;;;;;5092090;28;19924;-48
2022/04/02 04:36:07;;;;;;;;;;;;;;;;;;5092839;28;19908;-47
2022/04/02 04:38:33;;;;;;;;;;;;;;;;;;5092304;28;19912;-45
2022/04/02 04:41:00;;;;;;;;;;;;;;;;;;5092773;28;19908;-46
2022/04/02 04:43:26;;;;;;;;;;;;;;;;;;5091919;28;19909;-47
2022/04/02 04:45:53;;;;;;;;;;;;;;;;;;5091903;28;19912;-48
2022/04/02 04:48:20;;;;;;;;;;;;;;;;;;5092240;28;20342;-43
2022/04/02 04:50:47;;;;;;;;;;;;;;;;;;5092578;28;20023;-44
2022/04/02 04:53:13;;;;;;;;;;;;;;;;;;5092352;28;19915;-44
2022/04/02 04:55:40;;;;;;;;;;;;;;;;;;5092169;28;20244;-51
2022/04/02 04:58:07;;;;;;;;;;;;;;;;;;5092707;28;19961;-55
2022/04/02 05:00:33;;;;;;;;;;;;;;;;;;5092221;28;19994;-54
2022/04/02 05:02:59;;;;;;;;;;;;;;;;;;5091775;28;19916;-52
2022/04/02 05:05:26;;;;;;;;;;;;;;;;;;5091709;28;20386;-48
2022/04/02 05:07:52;;;;;;;;;;;;;;;;;;5092239;28;19920;-56
2022/04/02 05:10:19;;;;;;;;;;;;;;;;;;5092189;28;19938;-54
2022/04/02 05:12:45;;;;;;;;;;;;;;;;;;5092263;28;19914;-55
2022/04/02 05:15:12;;;;;;;;;;;;;;;;;;5092066;28;19934;-55
2022/04/02 05:17:39;;;;;;;;;;;;;;;;;;5092071;28;20282;-58
2022/04/02 05:20:05;;;;;;;;;;;;;;;;;;5091530;28;19909;-53
2022/04/02 05:22:32;;;;;;;;;;;;;;;;;;5092273;28;19908;-57
2022/04/02 05:24:58;;;;;;;;;;;;;;;;;;5091964;28;19908;-56
2022/04/02 05:27:25;;;;;;;;;;;;;;;;;;5092214;28;19992;-61
2022/04/02 05:29:51;;;;;;;;;;;;;;;;;;5090870;28;19948;-57
2022/04/02 05:32:18;;;;;;;;;;;;;;;;;;5093543;28;19915;-59
2022/04/02 05:34:45;;;;;;;;;;;;;;;;;;5095465;28;19909;-59
2022/04/02 05:37:11;;;;;;;;;;;;;;;;;;5095426;28;19916;-57
2022/04/02 05:39:38;;;;;;;;;;;;;;;;;;5094696;28;19915;-58
2022/04/02 05:42:07;;;;;;;;;;;;;;;;;;5095582;28;19947;-58
2022/04/02 05:44:33;;;;;;;;;;;;;;;;;;5095720;28;19908;-50
2022/04/02 05:47:00;;;;;;;;;;;;;;;;;;5095521;28;19923;-58
2022/04/02 05:49:26;;;;;;;;;;;;;;;;;;5095389;28;19951;-56
2022/04/02 05:51:53;;;;;;;;;;;;;;;;;;5095163;28;19912;-52
2022/04/02 05:54:19;;;;;;;;;;;;;;;;;;5095538;28;20037;-57
2022/04/02 05:56:46;;;;;;;;;;;;;;;;;;5095449;28;20006;-59
2022/04/02 05:59:12;;;;;;;;;;;;;;;;;;5095155;28;19942;-55
2022/04/02 06:01:39;;;;;;;;;;;;;;;;;;5094087;28;19908;-54
2022/04/02 06:04:05;;;;;;;;;;;;;;;;;;5094730;28;19928;-52
2022/04/02 06:06:32;;;;;;;;;;;;;;;;;;5094720;28;19912;-57
2022/04/02 06:08:58;;;;;;;;;;;;;;;;;;5094698;28;19998;-59
2022/04/02 06:11:25;;;;;;;;;;;;;;;;;;5093371;28;19988;-51
2022/04/02 06:13:51;;;;;;;;;;;;;;;;;;5094551;28;19931;-53
2022/04/02 06:16:18;;;;;;;;;;;;;;;;;;5093686;28;20278;-57
2022/04/02 06:18:44;;;;;;;;;;;;;;;;;;5094306;28;19919;-58
2022/04/02 06:21:11;;;;;;;;;;;;;;;;;;5094619;28;19908;-58
2022/04/02 06:23:38;;;;;;;;;;;;;;;;;;5094186;28;19915;-54
2022/04/02 06:26:04;;;;;;;;;;;;;;;;;;5094506;28;19926;-55
2022/04/02 06:28:31;;;;;;;;;;;;;;;;;;5094589;28;19988;-57
2022/04/02 06:30:57;;;;;;;;;;;;;;;;;;5093184;28;20231;-57
2022/04/02 06:33:24;;;;;;;;;;;;;;;;;;5094513;28;19954;-55
2022/04/02 06:35:50;;;;;;;;;;;;;;;;;;5094228;28;20266;-60
2022/04/02 06:38:17;;;;;;;;;;;;;;;;;;5094223;28;19930;-56
2022/04/02 06:40:43;;;;;;;;;;;;;;;;;;5094282;28;20015;-58
2022/04/02 06:43:10;;;;;;;;;;;;;;;;;;5093266;28;19965;-58
2022/04/02 06:45:36;;;;;;;;;;;;;;;;;;5093813;28;19908;-56
2022/04/02 06:48:02;;;;;;;;;;;;;;;;;;5093822;28;19927;-60
2022/04/02 06:50:29;;;;;;;;;;;;;;;;;;5094044;28;19908;-57
2022/04/02 06:52:55;;;;;;;;;;;;;;;;;;5094005;28;19908;-56
2022/04/02 06:55:22;;;;;;;;;;;;;;;;;;5092217;28;19908;-58
2022/04/02 06:57:48;;;;;;;;;;;;;;;;;;5093579;28;20330;-56
2022/04/02 07:00:15;;;;;;;;;;;;;;;;;;5100493;28;20277;-55
2022/04/02 07:02:41;;;;;;;;;;;;;;;;;;5114431;28;19915;-55
2022/04/02 07:05:08;;;;;;;;;;;;;;;;;;5114079;28;19948;-48
2022/04/02 07:07:34;;;;;;;;;;;;;;;;;;5114582;28;19923;-46
2022/04/02 07:10:01;;;;;;;;;;;;;;;;;;5114191;28;19907;-52
2022/04/02 07:12:27;;;;;;;;;;;;;;;;;;5114533;28;20362;-52
2022/04/02 07:14:54;;;;;;;;;;;;;;;;;;5114197;28;19915;-50
2022/04/02 07:17:20;;;;;;;;;;;;;;;;;;5114073;27;19908;-47
2022/04/02 07:19:47;;;;;;;;;;;;;;;;;;5113914;28;19915;-49
2022/04/02 07:22:13;;;;;;;;;;;;;;;;;;5113907;28;20290;-48
2022/04/02 07:24:39;;;;;;;;;;;;;;;;;;5114088;28;19939;-55
2022/04/02 07:27:07;;;;;;;;;;;;;;;;;;5113760;28;19915;-51
2022/04/02 07:29:33;;;;;;;;;;;;;;;;;;5101905;28;19916;-47
2022/04/02 07:32:00;;;;;;;;;;;;;;;;;;5090571;28;19912;-45
2022/04/02 07:34:26;;;;;;;;;;;;;;;;;;5091650;28;19916;-49
2022/04/02 07:36:53;;;;;;;;;;;;;;;;;;5093946;28;19938;-44
2022/04/02 07:39:19;;;;;;;;;;;;;;;;;;5090550;28;20003;-42
2022/04/02 07:41:46;;;;;;;;;;;;;;;;;;5088186;28;20351;-41
2022/04/02 07:44:12;;;;;;;;;;;;;;;;;;5091679;28;20358;-46
2022/04/02 07:46:39;;;;;;;;;;;;;;;;;;5090110;28;19919;-42
2022/04/02 07:49:05;;;;;;;;;;;;;;;;;;5092208;28;19991;-44
2022/04/02 07:51:32;;;;;;;;;;;;;;;;;;5087615;28;21233;-41
2022/04/02 07:53:58;;;;;;;;;;;;;;;;;;5091563;28;19914;-43
2022/04/02 07:56:25;;;;;;;;;;;;;;;;;;5091238;28;20069;-47
2022/04/02 07:58:51;;;;;;;;;;;;;;;;;;5090259;28;19912;-47
2022/04/02 08:01:18;;;;;;;;;;;;;;;;;;5086657;28;19955;-45
2022/04/02 08:03:44;;;;;;;;;;;;;;;;;;5090581;28;20331;-43
2022/04/02 08:06:11;;;;;;;;;;;;;;;;;;5090895;28;19908;-41
2022/04/02 08:08:37;;;;;;;;;;;;;;;;;;5090815;28;19951;-43
2022/04/02 08:11:04;;;;;;;;;;;;;;;;;;5085481;28;19935;-54
2022/04/02 08:13:30;;;;;;;;;;;;;;;;;;5091014;28;19908;-54
2022/04/02 08:15:57;;;;;;;;;;;;;;;;;;5090910;28;19933;-49
2022/04/02 08:18:25;;;;;;;;;;;;;;;;;;5090113;28;20355;-47
2022/04/02 08:20:52;;;;;;;;;;;;;;;;;;5083158;28;19908;-53
2022/04/02 08:23:18;;;;;;;;;;;;;;;;;;5089982;28;19919;-47
2022/04/02 08:25:46;;;;;;;;;;;;;;;;;;5090877;28;19922;-57
2022/04/02 08:28:13;;;;;;;;;;;;;;;;;;5089666;28;20386;-58
2022/04/02 08:30:39;;;;;;;;;;;;;;;;;;5083655;28;20035;-45
2022/04/02 08:33:06;;;;;;;;;;;;;;;;;;5090977;28;20007;-58
2022/04/02 08:35:32;;;;;;;;;;;;;;;;;;5091123;28;19908;-57
2022/04/02 08:37:58;;;;;;;;;;;;;;;;;;5091046;28;19960;-51
2022/04/02 08:40:25;;;;;;;;;;;;;;;;;;5085254;28;20283;-59
2022/04/02 08:42:51;;;;;;;;;;;;;;;;;;5087452;28;19914;-45
2022/04/02 08:45:18;;;;;;;;;;;;;;;;;;5091223;28;19908;-49
2022/04/02 08:47:44;;;;;;;;;;;;;;;;;;5089040;28;19963;-54
2022/04/02 08:50:11;;;;;;;;;;;;;;;;;;5081430;28;19917;-51
2022/04/02 08:52:37;;;;;;;;;;;;;;;;;;5090748;28;19908;-44
2022/04/02 08:55:04;;;;;;;;;;;;;;;;;;5088376;28;19918;-53
2022/04/02 08:57:32;;;;;;;;;;;;;;;;;;5088359;28;19908;-43
2022/04/02 08:59:59;;;;;;;;;;;;;;;;;;5090480;28;20362;-45
2022/04/02 09:02:26;;;;;;;;;;;;;;;;;;5085074;28;19908;-50
2022/04/02 09:04:52;;;;;;;;;;;;;;;;;;5088145;28;19928;-48
2022/04/02 09:07:19;;;;;;;;;;;;;;;;;;5092689;28;20259;-45
2022/04/02 09:09:45;;;;;;;;;;;;;;;;;;5091611;28;20072;-49
2022/04/02 09:12:12;;;;;;;;;;;;;;;;;;5086463;28;19912;-48
2022/04/02 09:14:38;;;;;;;;;;;;;;;;;;5091359;28;19912;-45
2022/04/02 09:17:05;;;;;;;;;;;;;;;;;;5095090;28;19955;-48
2022/04/02 09:19:32;;;;;;;;;;;;;;;;;;5095044;28;19915;-50
2022/04/02 09:21:58;;;;;;;;;;;;;;;;;;5091453;28;20377;-50
2022/04/02 09:24:24;;;;;;;;;;;;;;;;;;5094743;28;20267;-48
2022/04/02 09:26:51;;;;;;;;;;;;;;;;;;5094734;28;19916;-53
2022/04/02 09:29:18;;;;;;;;;;;;;;;;;;5094614;28;19908;-43
2022/04/02 09:31:44;;;;;;;;;;;;;;;;;;5095844;28;20279;-56
2022/04/02 09:34:10;;;;;;;;;;;;;;;;;;5096767;28;19961;-54
2022/04/02 09:36:37;;;;;;;;;;;;;;;;;;5096460;28;19995;-52
2022/04/02 09:39:03;;;;;;;;;;;;;;;;;;5096489;28;19908;-55
2022/04/02 09:41:30;;;;;;;;;;;;;;;;;;5096063;28;19912;-53
2022/04/02 09:43:56;;;;;;;;;;;;;;;;;;5096126;28;19908;-58
2022/04/02 09:46:23;;;;;;;;;;;;;;;;;;5095867;28;19937;-55
2022/04/02 09:48:49;;;;;;;;;;;;;;;;;;5095611;28;19947;-52
2022/04/02 09:51:19;;;;;;;;;;;;;;;;;;5087798;28;19916;-46
2022/04/02 09:53:46;;;;;;;;;;;;;;;;;;5091784;28;19916;-47
2022/04/02 09:56:12;;;;;;;;;;;;;;;;;;5092404;28;20357;-54
2022/04/02 09:58:38;;;;;;;;;;;;;;;;;;5093138;28;19919;-49
2022/04/02 10:01:05;;;;;;;;;;;;;;;;;;5089959;28;19916;-46
2022/04/02 10:03:34;;;;;;;;;;;;;;;;;;5091951;28;19923;-43
2022/04/02 10:06:01;;;;;;;;;;;;;;;;;;5095212;28;19994;-53
2022/04/02 10:08:27;;;;;;;;;;;;;;;;;;5094821;28;19916;-54
2022/04/02 10:10:54;;;;;;;;;;;;;;;;;;5095459;28;20370;-48
2022/04/02 10:13:21;;;;;;;;;;;;;;;;;;5094060;28;19908;-51
2022/04/02 10:15:47;;;;;;;;;;;;;;;;;;5095563;28;19914;-52
2022/04/02 10:18:16;;;;;;;;;;;;;;;;;;5094549;28;19916;-47
2022/04/02 10:20:43;;;;;;;;;;;;;;;;;;5095690;28;19965;-53
2022/04/02 10:23:11;;;;;;;;;;;;;;;;;;5095710;28;19908;-56
2022/04/02 10:25:38;;;;;;;;;;;;;;;;;;5095132;28;19908;-55
2022/04/02 10:28:04;;;;;;;;;;;;;;;;;;5094325;28;19916;-57
2022/04/02 10:30:31;;;;;;;;;;;;;;;;;;5095074;28;19908;-54
2022/04/02 10:35:42;;;;;;;;;;;;;;;;;;5089519;28;19953;-43
2022/04/02 10:38:12;;;;;;;;;;;;;;;;;;5092804;28;20315;-44
2022/04/02 10:40:38;;;;;;;;;;;;;;;;;;5090678;28;19907;-43
2022/04/02 10:43:06;;;;;;;;;;;;;;;;;;5091693;28;19908;-49
2022/04/02 10:45:32;;;;;;;;;;;;;;;;;;5091679;28;19912;-46
2022/04/02 10:47:59;;;;;;;;;;;;;;;;;;5090513;28;19926;-49
2022/04/02 10:50:25;;;;;;;;;;;;;;;;;;5092142;28;20346;-43
2022/04/02 10:52:52;;;;;;;;;;;;;;;;;;5091783;28;20397;-50
2022/04/02 10:55:19;;;;;;;;;;;;;;;;;;5093488;28;20002;-51
2022/04/02 10:57:45;;;;;;;;;;;;;;;;;;5087148;28;20385;-47
2022/04/02 11:00:12;;;;;;;;;;;;;;;;;;5092402;28;20441;-45
2022/04/02 11:02:42;;;;;;;;;;;;;;;;;;5090592;28;20301;-48
2022/04/02 11:05:08;;;;;;;;;;;;;;;;;;5093887;28;19924;-43
2022/04/02 11:07:37;;;;;;;;;;;;;;;;;;5090227;28;20388;-49
2022/04/02 11:10:03;;;;;;;;;;;;;;;;;;5091431;28;19970;-49
2022/04/02 11:12:30;;;;;;;;;;;;;;;;;;5089181;28;20285;-47
2022/04/02 11:14:56;;;;;;;;;;;;;;;;;;5090259;28;19915;-51
2022/04/02 11:17:23;;;;;;;;;;;;;;;;;;5091031;28;19923;-48
2022/04/02 11:19:56;;;;;;;;;;;;;;;;;;5093186;28;19908;-53
2022/04/02 11:22:22;;;;;;;;;;;;;;;;;;5093779;28;19908;-55
2022/04/02 11:24:49;;;;;;;;;;;;;;;;;;5093944;28;19930;-53
2022/04/02 11:27:15;;;;;;;;;;;;;;;;;;5093819;28;20008;-57
2022/04/02 11:29:42;;;;;;;;;;;;;;;;;;5093353;28;19912;-58
2022/04/02 11:32:08;;;;;;;;;;;;;;;;;;5092854;28;19908;-47
2022/04/02 11:34:35;;;;;;;;;;;;;;;;;;5092720;28;20339;-53
2022/04/02 11:37:03;;;;;;;;;;;;;;;;;;5092682;28;19908;-58
2022/04/02 11:39:29;;;;;;;;;;;;;;;;;;5091918;28;20287;-58
2022/04/02 11:41:57;;;;;;;;;;;;;;;;;;5092963;28;19909;-53
2022/04/02 11:44:23;;;;;;;;;;;;;;;;;;5093334;28;19915;-58
2022/04/02 11:46:50;;;;;;;;;;;;;;;;;;5092207;28;19916;-58
2022/04/02 11:49:16;;;;;;;;;;;;;;;;;;5093490;28;19953;-55
2022/04/02 11:51:43;;;;;;;;;;;;;;;;;;5093176;28;19912;-58
2022/04/02 11:54:10;;;;;;;;;;;;;;;;;;5093229;28;19908;-52
2022/04/02 11:56:37;;;;;;;;;;;;;;;;;;5093435;28;19909;-57
2022/04/02 11:59:04;;;;;;;;;;;;;;;;;;5093289;28;20002;-53
2022/04/02 12:01:30;;;;;;;;;;;;;;;;;;5092793;28;19908;-50
2022/04/02 12:03:56;;;;;;;;;;;;;;;;;;5092973;28;19923;-53
2022/04/02 12:06:23;;;;;;;;;;;;;;;;;;5093293;28;19920;-60
2022/04/02 12:08:54;;;;;;;;;;;;;;;;;;5092369;28;21324;-58
2022/04/02 12:11:20;;;;;;;;;;;;;;;;;;5092898;28;19915;-55
2022/04/02 12:13:46;;;;;;;;;;;;;;;;;;5093099;28;19905;-54
2022/04/02 12:16:13;;;;;;;;;;;;;;;;;;5093240;28;19916;-52
2022/04/02 12:18:39;;;;;;;;;;;;;;;;;;5093213;28;19915;-45
2022/04/02 12:21:09;;;;;;;;;;;;;;;;;;5091988;28;20394;-48
2022/04/02 12:23:37;;;;;;;;;;;;;;;;;;5092798;28;19912;-47
2022/04/02 12:26:03;;;;;;;;;;;;;;;;;;5093097;28;20011;-58
2022/04/02 12:28:30;;;;;;;;;;;;;;;;;;5092892;28;19957;-41
2022/04/02 12:30:56;;;;;;;;;;;;;;;;;;5093381;28;19908;-49
2022/04/02 12:33:23;;;;;;;;;;;;;;;;;;5091980;28;19912;-57
2022/04/02 12:35:50;;;;;;;;;;;;;;;;;;5092866;28;20363;-58
2022/04/02 12:38:16;;;;;;;;;;;;;;;;;;5092953;28;19915;-58
2022/04/02 12:40:43;;;;;;;;;;;;;;;;;;5092604;28;19919;-55
2022/04/02 12:43:13;;;;;;;;;;;;;;;;;;5092283;28;19909;-59
2022/04/02 12:45:39;;;;;;;;;;;;;;;;;;5092655;28;19909;-58
2022/04/02 12:48:06;;;;;;;;;;;;;;;;;;5092848;28;19924;-58
2022/04/02 12:50:33;;;;;;;;;;;;;;;;;;5093292;28;19912;-57
2022/04/02 12:52:59;;;;;;;;;;;;;;;;;;5092978;28;19908;-53
2022/04/02 12:55:26;;;;;;;;;;;;;;;;;;5092578;28;19908;-55
2022/04/02 12:57:52;;;;;;;;;;;;;;;;;;5092826;28;20183;-56
2022/04/02 13:00:19;;;;;;;;;;;;;;;;;;5093061;28;19955;-54
2022/04/02 13:02:45;;;;;;;;;;;;;;;;;;5093006;28;20089;-55
2022/04/02 13:05:12;;;;;;;;;;;;;;;;;;5092604;28;19928;-57
2022/04/02 13:07:38;;;;;;;;;;;;;;;;;;5092077;28;19923;-57
2022/04/02 13:10:07;;;;;;;;;;;;;;;;;;5092705;28;19909;-51
2022/04/02 13:12:33;;;;;;;;;;;;;;;;;;5092251;28;19919;-59
2022/04/02 13:15:00;;;;;;;;;;;;;;;;;;5092732;28;19908;-56
2022/04/02 13:17:28;;;;;;;;;;;;;;;;;;5092199;28;19947;-57
2022/04/02 13:22:40;;;;;;;;;;;;;;;;;;5092764;28;20282;-49
2022/04/02 13:25:07;;;;;;;;;;;;;;;;;;5092309;28;19908;-55
2022/04/02 13:27:35;;;;;;;;;;;;;;;;;;5087820;28;19965;-44
2022/04/02 13:30:02;;;;;;;;;;;;;;;;;;5089078;28;19912;-46
2022/04/02 13:32:28;;;;;;;;;;;;;;;;;;5089251;28;19909;-55
2022/04/02 13:34:54;;;;;;;;;;;;;;;;;;5090673;28;19920;-49
2022/04/02 13:37:21;;;;;;;;;;;;;;;;;;5089030;28;19990;-49
2022/04/02 13:39:47;;;;;;;;;;;;;;;;;;5089356;28;20278;-43
2022/04/02 13:42:14;;;;;;;;;;;;;;;;;;5085417;28;20270;-43
2022/04/02 13:44:40;;;;;;;;;;;;;;;;;;5088881;28;20278;-43
2022/04/02 13:47:07;;;;;;;;;;;;;;;;;;5089014;28;19939;-42
2022/04/02 13:49:33;;;;;;;;;;;;;;;;;;5086224;28;19916;-45
2022/04/02 13:52:00;;;;;;;;;;;;;;;;;;5085591;28;19923;-44
2022/04/02 13:54:27;;;;;;;;;;;;;;;;;;5095489;28;20266;-53
2022/04/02 13:56:54;;;;;;;;;;;;;;;;;;5089348;28;19926;-46
2022/04/02 13:59:20;;;;;;;;;;;;;;;;;;5093176;28;19908;-59
2022/04/02 14:01:47;;;;;;;;;;;;;;;;;;5089068;28;19991;-57
2022/04/02 14:04:13;;;;;;;;;;;;;;;;;;5092515;28;19927;-45
2022/04/02 14:06:40;;;;;;;;;;;;;;;;;;5089600;28;19916;-43
2022/04/02 14:09:07;;;;;;;;;;;;;;;;;;5092326;28;19912;-46
2022/04/02 14:11:33;;;;;;;;;;;;;;;;;;5091485;28;19912;-55
2022/04/02 14:14:00;;;;;;;;;;;;;;;;;;5090863;28;19919;-43
2022/04/02 14:16:26;;;;;;;;;;;;;;;;;;5092061;28;19908;-57
2022/04/02 14:18:52;;;;;;;;;;;;;;;;;;5090584;28;19916;-45
2022/04/02 14:21:19;;;;;;;;;;;;;;;;;;5093645;28;19934;-58
2022/04/02 14:23:45;;;;;;;;;;;;;;;;;;5088039;28;20624;-56
2022/04/02 14:26:12;;;;;;;;;;;;;;;;;;5094894;28;19995;-47
2022/04/02 14:28:38;;;;;;;;;;;;;;;;;;5093461;28;19958;-53
2022/04/02 14:31:05;;;;;;;;;;;;;;;;;;5090338;28;19912;-48
2022/04/02 14:33:31;;;;;;;;;;;;;;;;;;5091400;28;20388;-43
2022/04/02 14:35:58;;;;;;;;;;;;;;;;;;5089419;28;20455;-49
2022/04/02 14:38:24;;;;;;;;;;;;;;;;;;5093033;28;19908;-55
2022/04/02 14:40:51;;;;;;;;;;;;;;;;;;5093873;28;19909;-56
2022/04/02 14:43:17;;;;;;;;;;;;;;;;;;5090143;28;19912;-45
2022/04/02 14:45:43;;;;;;;;;;;;;;;;;;5091609;28;19908;-59
2022/04/02 14:48:10;;;;;;;;;;;;;;;;;;5091016;28;19920;-47
2022/04/02 14:50:37;;;;;;;;;;;;;;;;;;5091923;28;20061;-51
2022/04/02 14:53:03;;;;;;;;;;;;;;;;;;5088455;28;19920;-46
2022/04/02 14:55:29;;;;;;;;;;;;;;;;;;5093676;28;20027;-50
2022/04/02 14:57:56;;;;;;;;;;;;;;;;;;5093056;28;19908;-54
2022/04/02 15:00:22;;;;;;;;;;;;;;;;;;5089023;28;19916;-46
2022/04/02 15:02:49;;;;;;;;;;;;;;;;;;5091858;28;19909;-46
2022/04/02 15:05:18;;;;;;;;;;;;;;;;;;5073215;28;20011;-56
2022/04/02 15:07:45;;;;;;;;;;;;;;;;;;5074180;28;19927;-56
2022/04/02 15:10:11;;;;;;;;;;;;;;;;;;5073259;28;19958;-57
2022/04/02 15:12:38;;;;;;;;;;;;;;;;;;5074554;28;19915;-56
2022/04/02 15:15:05;;;;;;;;;;;;;;;;;;5074578;28;19909;-59
2022/04/02 15:17:33;;;;;;;;;;;;;;;;;;5074056;28;19998;-57
2022/04/02 15:19:59;;;;;;;;;;;;;;;;;;5072818;28;20325;-57
2022/04/02 15:22:26;;;;;;;;;;;;;;;;;;5074276;28;19908;-56
2022/04/02 15:24:52;;;;;;;;;;;;;;;;;;5074157;28;19908;-58
2022/04/02 15:27:19;;;;;;;;;;;;;;;;;;5073943;28;19961;-56
2022/04/02 15:29:49;;;;;;;;;;;;;;;;;;5073425;28;20340;-56
2022/04/02 15:32:16;;;;;;;;;;;;;;;;;;5073580;28;19917;-57
2022/04/02 15:34:43;;;;;;;;;;;;;;;;;;5073899;28;19916;-59
2022/04/02 15:37:09;;;;;;;;;;;;;;;;;;5073797;28;19944;-56
2022/04/02 15:39:36;;;;;;;;;;;;;;;;;;5073846;28;19909;-58
2022/04/02 15:42:02;;;;;;;;;;;;;;;;;;5073740;28;19909;-58
2022/04/02 15:44:30;;;;;;;;;;;;;;;;;;5073641;28;19908;-55
2022/04/02 15:46:57;;;;;;;;;;;;;;;;;;5073707;28;20002;-58
2022/04/02 15:49:23;;;;;;;;;;;;;;;;;;5073662;28;19916;-56
2022/04/02 15:51:50;;;;;;;;;;;;;;;;;;5073374;28;19908;-56
2022/04/02 15:54:16;;;;;;;;;;;;;;;;;;5073556;28;19916;-58
2022/04/02 15:56:43;;;;;;;;;;;;;;;;;;5073488;28;20371;-52
2022/04/02 15:59:10;;;;;;;;;;;;;;;;;;5073343;28;20338;-47
2022/04/02 16:01:36;;;;;;;;;;;;;;;;;;5073325;28;19909;-54
2022/04/02 16:04:03;;;;;;;;;;;;;;;;;;5073165;28;20309;-58
2022/04/02 16:06:30;;;;;;;;;;;;;;;;;;5072034;28;19908;-56
2022/04/02 16:08:58;;;;;;;;;;;;;;;;;;5073451;28;19912;-58
2022/04/02 16:11:25;;;;;;;;;;;;;;;;;;5073286;28;20336;-56
2022/04/02 16:13:51;;;;;;;;;;;;;;;;;;5073266;28;19908;-55
2022/04/02 16:16:18;;;;;;;;;;;;;;;;;;5073235;28;19908;-55
2022/04/02 16:18:44;;;;;;;;;;;;;;;;;;5073430;28;19909;-57
2022/04/02 16:21:11;;;;;;;;;;;;;;;;;;5073429;28;19908;-59
2022/04/02 16:23:37;;;;;;;;;;;;;;;;;;5071918;28;19908;-57
2022/04/02 16:26:04;;;;;;;;;;;;;;;;;;5073227;28;19909;-55
2022/04/02 16:28:31;;;;;;;;;;;;;;;;;;5071632;28;20451;-58
2022/04/02 16:30:57;;;;;;;;;;;;;;;;;;5073203;28;19909;-57
2022/04/02 16:33:23;;;;;;;;;;;;;;;;;;5073083;28;19966;-57
2022/04/02 16:35:50;;;;;;;;;;;;;;;;;;5072900;28;20358;-57
2022/04/02 16:38:16;;;;;;;;;;;;;;;;;;5073059;28;20351;-58
2022/04/02 16:40:43;;;;;;;;;;;;;;;;;;5073171;28;19912;-58
2022/04/02 16:43:10;;;;;;;;;;;;;;;;;;5073021;28;19912;-45
2022/04/02 16:45:37;;;;;;;;;;;;;;;;;;5072861;28;19915;-59
2022/04/02 16:48:04;;;;;;;;;;;;;;;;;;5072929;28;19917;-58
2022/04/02 16:50:30;;;;;;;;;;;;;;;;;;5073003;28;19943;-57